LPA5855 UHWW-UHHH
Flight info
| Callsign | LPA5855 |
|---|---|
| Flight time | 0h 56m |
| Altitude | 390 |
| Route | K0895F390 DOLMA2F DOLMA B356 TD B355 ARDEL ARDEL6D |
| Aircraft | A359/H-SDE2E3GHIJ3J4J5LM1ORWXY/LB1D1 |
Departure
| Time | 2026-04-22 16:34 |
|---|---|
| Airport | Vladivostok International Airport (UHWW) |
Arrival
| Time | 2026-04-22 17:30 |
|---|---|
| Airport | Khabarovsk Novy Airport (UHHH) |
| Time | Latitude | Longitude | Altitude | Speed | Heading |
|---|---|---|---|---|---|
| 2026-04-22 15:53 | 43.39814 | 132.16273 | 39 ft | 0 kts | 152° |
| 2026-04-22 16:25 | 43.39801 | 132.16281 | 39 ft | 5 kts | 155° |
| 2026-04-22 16:26 | 43.39754 | 132.16282 | 39 ft | 9 kts | 193° |
| 2026-04-22 16:26 | 43.39685 | 132.16228 | 39 ft | 13 kts | 225° |
| 2026-04-22 16:26 | 43.39626 | 132.16103 | 39 ft | 18 kts | 241° |
| 2026-04-22 16:26 | 43.39559 | 132.15939 | 39 ft | 19 kts | 240° |
| 2026-04-22 16:27 | 43.39556 | 132.15868 | 39 ft | 2 kts | 316° |
| 2026-04-22 16:27 | 43.39589 | 132.15836 | 39 ft | 9 kts | 327° |
| 2026-04-22 16:27 | 43.39660 | 132.15780 | 39 ft | 14 kts | 332° |
| 2026-04-22 16:27 | 43.39730 | 132.15711 | 39 ft | 7 kts | 295° |
| 2026-04-22 16:28 | 43.39719 | 132.15636 | 39 ft | 11 kts | 246° |
| 2026-04-22 16:28 | 43.39677 | 132.15524 | 39 ft | 16 kts | 242° |
| 2026-04-22 16:28 | 43.39618 | 132.15373 | 39 ft | 20 kts | 242° |
| 2026-04-22 16:28 | 43.39541 | 132.15187 | 39 ft | 24 kts | 240° |
| 2026-04-22 16:29 | 43.39453 | 132.14968 | 39 ft | 28 kts | 242° |
| 2026-04-22 16:29 | 43.39353 | 132.14717 | 39 ft | 31 kts | 240° |
| 2026-04-22 16:29 | 43.39255 | 132.14473 | 39 ft | 24 kts | 241° |
| 2026-04-22 16:29 | 43.39168 | 132.14262 | 39 ft | 27 kts | 240° |
| 2026-04-22 16:30 | 43.39104 | 132.14105 | 39 ft | 29 kts | 242° |
| 2026-04-22 16:30 | 43.38972 | 132.13776 | 37 ft | 29 kts | 241° |
| 2026-04-22 16:30 | 43.38869 | 132.13523 | 39 ft | 32 kts | 241° |
| 2026-04-22 16:30 | 43.38785 | 132.13313 | 39 ft | 13 kts | 241° |
| 2026-04-22 16:31 | 43.38788 | 132.13198 | 40 ft | 14 kts | 307° |
| 2026-04-22 16:31 | 43.38801 | 132.13181 | 40 ft | 0 kts | 321° |
| 2026-04-22 16:32 | 43.38814 | 132.13169 | 40 ft | 9 kts | 325° |
| 2026-04-22 16:32 | 43.38884 | 132.13113 | 40 ft | 14 kts | 333° |
| 2026-04-22 16:32 | 43.38947 | 132.13130 | 38 ft | 7 kts | 50° |
| 2026-04-22 16:32 | 43.38966 | 132.13170 | 39 ft | 0 kts | 57° |
| 2026-04-22 16:33 | 43.38967 | 132.13171 | 39 ft | 1 kts | 57° |
| 2026-04-22 16:33 | 43.39092 | 132.13470 | 39 ft | 83 kts | 62° |
| 2026-04-22 16:33 | 43.39515 | 132.14512 | 40 ft | 163 kts | 63° |
| 2026-04-22 16:33 | 43.40090 | 132.16065 | 603 ft | 190 kts | 64° |
| 2026-04-22 16:34 | 43.40680 | 132.17753 | 1706 ft | 206 kts | 60° |
| 2026-04-22 16:34 | 43.41438 | 132.19590 | 2137 ft | 235 kts | 57° |
| 2026-04-22 16:34 | 43.42306 | 132.21597 | 2839 ft | 250 kts | 57° |
| 2026-04-22 16:34 | 43.43190 | 132.23707 | 3687 ft | 259 kts | 57° |
| 2026-04-22 16:35 | 43.44095 | 132.25909 | 4490 ft | 269 kts | 57° |
| 2026-04-22 16:35 | 43.45025 | 132.28198 | 5300 ft | 278 kts | 57° |
| 2026-04-22 16:35 | 43.45961 | 132.30518 | 6177 ft | 283 kts | 57° |
| 2026-04-22 16:35 | 43.46923 | 132.32911 | 7052 ft | 288 kts | 57° |
| 2026-04-22 16:36 | 43.47905 | 132.35352 | 7921 ft | 294 kts | 56° |
| 2026-04-22 16:36 | 43.49044 | 132.37688 | 8780 ft | 294 kts | 41° |
| 2026-04-22 16:36 | 43.50648 | 132.39357 | 9762 ft | 288 kts | 23° |
| 2026-04-22 16:36 | 43.52412 | 132.40737 | 10485 ft | 299 kts | 21° |
| 2026-04-22 16:37 | 43.54303 | 132.42181 | 10861 ft | 321 kts | 21° |
| 2026-04-22 16:37 | 43.56284 | 132.43727 | 11524 ft | 331 kts | 22° |
| 2026-04-22 16:37 | 43.58301 | 132.45326 | 12302 ft | 338 kts | 21° |
| 2026-04-22 16:37 | 43.60356 | 132.46962 | 13103 ft | 344 kts | 21° |
| 2026-04-22 16:38 | 43.62440 | 132.48625 | 13909 ft | 349 kts | 20° |
| 2026-04-22 16:38 | 43.64557 | 132.50312 | 14643 ft | 353 kts | 20° |
| 2026-04-22 16:38 | 43.66669 | 132.51998 | 15416 ft | 357 kts | 20° |
| 2026-04-22 16:38 | 43.68830 | 132.53722 | 16205 ft | 361 kts | 19° |
| 2026-04-22 16:39 | 43.71020 | 132.55472 | 16986 ft | 365 kts | 19° |
| 2026-04-22 16:39 | 43.73227 | 132.57239 | 17728 ft | 369 kts | 19° |
| 2026-04-22 16:39 | 43.75461 | 132.59027 | 18442 ft | 374 kts | 19° |
| 2026-04-22 16:39 | 43.77729 | 132.60847 | 19053 ft | 378 kts | 19° |
| 2026-04-22 16:40 | 43.80005 | 132.62717 | 19693 ft | 385 kts | 21° |
| 2026-04-22 16:40 | 43.82200 | 132.64927 | 20344 ft | 396 kts | 27° |
| 2026-04-22 16:40 | 43.86440 | 132.70010 | 21635 ft | 409 kts | 31° |
| 2026-04-22 16:41 | 43.88553 | 132.72695 | 22269 ft | 414 kts | 31° |
| 2026-04-22 16:41 | 43.90684 | 132.75408 | 22877 ft | 418 kts | 31° |
| 2026-04-22 16:41 | 43.92844 | 132.78138 | 23487 ft | 422 kts | 30° |
| 2026-04-22 16:41 | 43.95032 | 132.80874 | 23998 ft | 426 kts | 30° |
| 2026-04-22 16:42 | 43.97253 | 132.83633 | 24515 ft | 430 kts | 30° |
| 2026-04-22 16:42 | 43.99495 | 132.86411 | 25033 ft | 433 kts | 30° |
| 2026-04-22 16:42 | 44.01758 | 132.89215 | 25537 ft | 438 kts | 30° |
| 2026-04-22 16:42 | 44.04012 | 132.92004 | 26069 ft | 443 kts | 30° |
| 2026-04-22 16:43 | 44.06327 | 132.94874 | 26611 ft | 447 kts | 30° |
| 2026-04-22 16:43 | 44.08657 | 132.97769 | 27178 ft | 451 kts | 30° |
| 2026-04-22 16:43 | 44.11011 | 133.00699 | 27750 ft | 456 kts | 30° |
| 2026-04-22 16:43 | 44.13386 | 133.03659 | 28329 ft | 460 kts | 30° |
| 2026-04-22 16:44 | 44.15779 | 133.06645 | 28910 ft | 465 kts | 30° |
| 2026-04-22 16:44 | 44.18193 | 133.09659 | 29495 ft | 469 kts | 30° |
| 2026-04-22 16:44 | 44.20682 | 133.12591 | 30070 ft | 466 kts | 25° |
| 2026-04-22 16:44 | 44.22385 | 133.14404 | 30396 ft | 467 kts | 25° |
| 2026-04-22 16:45 | 44.25007 | 133.17140 | 30870 ft | 470 kts | 25° |
| 2026-04-22 16:45 | 44.27638 | 133.19852 | 31322 ft | 474 kts | 25° |
| 2026-04-22 16:45 | 44.30316 | 133.22601 | 31788 ft | 478 kts | 25° |
| 2026-04-22 16:45 | 44.33006 | 133.25362 | 32222 ft | 483 kts | 26° |
| 2026-04-22 16:46 | 44.35722 | 133.28157 | 32650 ft | 487 kts | 26° |
| 2026-04-22 16:46 | 44.38454 | 133.30976 | 33081 ft | 491 kts | 27° |
| 2026-04-22 16:46 | 44.41212 | 133.33830 | 33475 ft | 495 kts | 27° |
| 2026-04-22 16:46 | 44.43983 | 133.36705 | 33973 ft | 497 kts | 27° |
| 2026-04-22 16:47 | 44.46756 | 133.39593 | 34476 ft | 496 kts | 28° |
| 2026-04-22 16:47 | 44.49526 | 133.42482 | 34959 ft | 497 kts | 28° |
| 2026-04-22 16:47 | 44.52299 | 133.45373 | 35421 ft | 497 kts | 28° |
| 2026-04-22 16:47 | 44.55044 | 133.48236 | 35879 ft | 498 kts | 28° |
| 2026-04-22 16:48 | 44.57859 | 133.51173 | 36363 ft | 498 kts | 28° |
| 2026-04-22 16:48 | 44.60604 | 133.54041 | 36820 ft | 498 kts | 28° |
| 2026-04-22 16:48 | 44.63378 | 133.56942 | 37299 ft | 498 kts | 29° |
| 2026-04-22 16:48 | 44.66161 | 133.59857 | 37801 ft | 498 kts | 29° |
| 2026-04-22 16:49 | 44.68940 | 133.62770 | 38292 ft | 498 kts | 29° |
| 2026-04-22 16:49 | 44.71708 | 133.65675 | 38745 ft | 498 kts | 30° |
| 2026-04-22 16:49 | 44.74494 | 133.68600 | 38943 ft | 499 kts | 30° |
| 2026-04-22 16:50 | 44.79951 | 133.74361 | 38988 ft | 484 kts | 30° |
| 2026-04-22 16:50 | 44.85320 | 133.80031 | 38985 ft | 482 kts | 30° |
| 2026-04-22 16:51 | 44.90690 | 133.85703 | 38980 ft | 482 kts | 30° |
| 2026-04-22 16:51 | 44.96086 | 133.91290 | 38978 ft | 480 kts | 28° |
| 2026-04-22 16:52 | 45.01526 | 133.96640 | 38975 ft | 479 kts | 28° |
| 2026-04-22 16:52 | 45.07005 | 134.02033 | 38969 ft | 480 kts | 28° |
| 2026-04-22 16:53 | 45.12456 | 134.07464 | 38975 ft | 480 kts | 28° |
| 2026-04-22 16:53 | 45.17899 | 134.12923 | 38973 ft | 479 kts | 29° |
| 2026-04-22 16:54 | 45.23343 | 134.18402 | 38971 ft | 479 kts | 29° |
| 2026-04-22 16:54 | 45.28769 | 134.23873 | 38974 ft | 478 kts | 29° |
| 2026-04-22 16:55 | 45.34195 | 134.29354 | 38966 ft | 478 kts | 29° |
| 2026-04-22 16:55 | 45.39611 | 134.34838 | 38967 ft | 477 kts | 29° |
| 2026-04-22 16:56 | 45.44971 | 134.40280 | 38962 ft | 476 kts | 29° |
| 2026-04-22 16:56 | 45.50361 | 134.45767 | 38963 ft | 476 kts | 30° |
| 2026-04-22 16:57 | 45.55743 | 134.51254 | 38960 ft | 475 kts | 30° |
| 2026-04-22 16:57 | 45.61130 | 134.56760 | 38960 ft | 475 kts | 30° |
| 2026-04-22 16:58 | 45.66495 | 134.62259 | 38954 ft | 474 kts | 30° |
| 2026-04-22 16:58 | 45.71861 | 134.67772 | 38957 ft | 474 kts | 30° |
| 2026-04-22 16:59 | 45.77176 | 134.73246 | 38952 ft | 474 kts | 31° |
| 2026-04-22 16:59 | 45.82519 | 134.78761 | 38860 ft | 476 kts | 31° |
| 2026-04-22 16:59 | 45.85239 | 134.81566 | 38747 ft | 490 kts | 31° |
| 2026-04-22 17:00 | 45.88078 | 134.84396 | 38672 ft | 499 kts | 26° |
| 2026-04-22 17:00 | 45.94591 | 134.87282 | 38369 ft | 485 kts | 0° |
| 2026-04-22 17:00 | 45.97948 | 134.87715 | 38104 ft | 484 kts | 359° |
| 2026-04-22 17:01 | 46.01306 | 134.88129 | 37844 ft | 485 kts | 360° |
| 2026-04-22 17:01 | 46.04664 | 134.88559 | 37580 ft | 485 kts | 360° |
| 2026-04-22 17:01 | 46.08011 | 134.88995 | 37332 ft | 485 kts | 0° |
| 2026-04-22 17:01 | 46.11402 | 134.89442 | 37076 ft | 485 kts | 0° |
| 2026-04-22 17:02 | 46.14761 | 134.89887 | 36825 ft | 485 kts | 0° |
| 2026-04-22 17:02 | 46.18121 | 134.90334 | 36574 ft | 485 kts | 0° |
| 2026-04-22 17:02 | 46.21467 | 134.90780 | 36327 ft | 485 kts | 0° |
| 2026-04-22 17:02 | 46.24784 | 134.91224 | 36093 ft | 485 kts | 0° |
| 2026-04-22 17:03 | 46.28199 | 134.91681 | 35854 ft | 485 kts | 0° |
| 2026-04-22 17:03 | 46.31551 | 134.92130 | 35611 ft | 485 kts | 0° |
| 2026-04-22 17:03 | 46.34924 | 134.92583 | 35370 ft | 484 kts | 0° |
| 2026-04-22 17:03 | 46.38241 | 134.93029 | 35136 ft | 484 kts | 0° |
| 2026-04-22 17:04 | 46.41572 | 134.93477 | 34907 ft | 484 kts | 0° |
| 2026-04-22 17:04 | 46.44926 | 134.93929 | 34678 ft | 484 kts | 1° |
| 2026-04-22 17:04 | 46.48289 | 134.94383 | 34449 ft | 484 kts | 1° |
| 2026-04-22 17:04 | 46.51636 | 134.94835 | 34222 ft | 484 kts | 1° |
| 2026-04-22 17:05 | 46.54962 | 134.95283 | 33999 ft | 483 kts | 1° |
| 2026-04-22 17:05 | 46.58328 | 134.95740 | 33752 ft | 482 kts | 1° |
| 2026-04-22 17:05 | 46.61654 | 134.96192 | 33485 ft | 479 kts | 1° |
| 2026-04-22 17:05 | 46.64957 | 134.96642 | 33223 ft | 476 kts | 1° |
| 2026-04-22 17:06 | 46.68269 | 134.97093 | 32784 ft | 473 kts | 1° |
| 2026-04-22 17:06 | 46.71533 | 134.97538 | 32530 ft | 468 kts | 1° |
| 2026-04-22 17:06 | 46.74761 | 134.97978 | 32278 ft | 463 kts | 1° |
| 2026-04-22 17:06 | 46.77960 | 134.98414 | 32025 ft | 460 kts | 1° |
| 2026-04-22 17:07 | 46.81090 | 134.98798 | 31772 ft | 456 kts | 359° |
| 2026-04-22 17:07 | 46.84293 | 134.98685 | 31528 ft | 450 kts | 352° |
| 2026-04-22 17:07 | 46.87356 | 134.98309 | 31284 ft | 447 kts | 351° |
| 2026-04-22 17:07 | 46.90452 | 134.97914 | 31041 ft | 444 kts | 351° |
| 2026-04-22 17:08 | 46.93520 | 134.97528 | 30783 ft | 440 kts | 351° |
| 2026-04-22 17:08 | 46.96535 | 134.97154 | 30365 ft | 432 kts | 351° |
| 2026-04-22 17:08 | 46.99507 | 134.96786 | 29855 ft | 427 kts | 351° |
| 2026-04-22 17:08 | 47.02455 | 134.96422 | 29291 ft | 421 kts | 351° |
| 2026-04-22 17:09 | 47.05349 | 134.96065 | 28787 ft | 414 kts | 351° |
| 2026-04-22 17:09 | 47.08203 | 134.95712 | 28288 ft | 408 kts | 351° |
| 2026-04-22 17:09 | 47.10964 | 134.95370 | 27806 ft | 402 kts | 351° |
| 2026-04-22 17:09 | 47.13763 | 134.95023 | 27311 ft | 396 kts | 351° |
| 2026-04-22 17:10 | 47.16498 | 134.94684 | 26816 ft | 391 kts | 351° |
| 2026-04-22 17:10 | 47.19153 | 134.94354 | 26335 ft | 386 kts | 351° |
| 2026-04-22 17:10 | 47.21828 | 134.94021 | 25844 ft | 382 kts | 351° |
| 2026-04-22 17:10 | 47.24464 | 134.93693 | 25354 ft | 378 kts | 351° |
| 2026-04-22 17:11 | 47.27105 | 134.93363 | 24852 ft | 375 kts | 351° |
| 2026-04-22 17:11 | 47.29657 | 134.93045 | 24370 ft | 371 kts | 351° |
| 2026-04-22 17:11 | 47.32217 | 134.92725 | 23873 ft | 368 kts | 351° |
| 2026-04-22 17:11 | 47.34766 | 134.92407 | 23348 ft | 366 kts | 351° |
| 2026-04-22 17:12 | 47.37292 | 134.92090 | 22803 ft | 362 kts | 351° |
| 2026-04-22 17:12 | 47.39786 | 134.91777 | 22307 ft | 357 kts | 351° |
| 2026-04-22 17:12 | 47.42240 | 134.91469 | 21800 ft | 353 kts | 351° |
| 2026-04-22 17:12 | 47.44672 | 134.91163 | 21301 ft | 349 kts | 351° |
| 2026-04-22 17:13 | 47.47082 | 134.90860 | 20801 ft | 346 kts | 352° |
| 2026-04-22 17:13 | 47.49486 | 134.90558 | 20298 ft | 343 kts | 352° |
| 2026-04-22 17:13 | 47.51860 | 134.90259 | 19790 ft | 341 kts | 352° |
| 2026-04-22 17:13 | 47.54222 | 134.89961 | 19294 ft | 340 kts | 352° |
| 2026-04-22 17:14 | 47.56573 | 134.89664 | 18784 ft | 339 kts | 352° |
| 2026-04-22 17:14 | 47.58918 | 134.89368 | 18278 ft | 338 kts | 352° |
| 2026-04-22 17:14 | 47.61246 | 134.89073 | 17716 ft | 337 kts | 352° |
| 2026-04-22 17:14 | 47.63550 | 134.88781 | 17212 ft | 335 kts | 353° |
| 2026-04-22 17:15 | 47.65119 | 134.88582 | 16879 ft | 333 kts | 353° |
| 2026-04-22 17:15 | 47.68190 | 134.88193 | 16218 ft | 330 kts | 353° |
| 2026-04-22 17:15 | 47.70470 | 134.87904 | 15741 ft | 328 kts | 354° |
| 2026-04-22 17:15 | 47.72738 | 134.87616 | 15258 ft | 326 kts | 354° |
| 2026-04-22 17:16 | 47.74993 | 134.87330 | 14792 ft | 324 kts | 354° |
| 2026-04-22 17:16 | 47.77234 | 134.87045 | 14330 ft | 322 kts | 354° |
| 2026-04-22 17:16 | 47.79459 | 134.86762 | 13877 ft | 320 kts | 355° |
| 2026-04-22 17:16 | 47.81652 | 134.86485 | 13404 ft | 318 kts | 355° |
| 2026-04-22 17:17 | 47.83835 | 134.86210 | 12942 ft | 315 kts | 355° |
| 2026-04-22 17:17 | 47.86008 | 134.85943 | 12493 ft | 312 kts | 355° |
| 2026-04-22 17:17 | 47.88157 | 134.85672 | 12052 ft | 308 kts | 354° |
| 2026-04-22 17:17 | 47.90292 | 134.85397 | 11615 ft | 305 kts | 354° |
| 2026-04-22 17:18 | 47.92401 | 134.85126 | 11186 ft | 303 kts | 354° |
| 2026-04-22 17:18 | 47.94492 | 134.84857 | 10752 ft | 301 kts | 354° |
| 2026-04-22 17:18 | 47.96571 | 134.84591 | 10316 ft | 299 kts | 354° |
| 2026-04-22 17:18 | 47.98584 | 134.84334 | 10128 ft | 279 kts | 354° |
| 2026-04-22 17:19 | 48.02289 | 134.83859 | 9882 ft | 257 kts | 354° |
| 2026-04-22 17:19 | 48.05925 | 134.83389 | 9710 ft | 272 kts | 354° |
| 2026-04-22 17:20 | 48.09680 | 134.82904 | 8896 ft | 270 kts | 354° |
| 2026-04-22 17:20 | 48.13415 | 134.82422 | 8237 ft | 269 kts | 354° |
| 2026-04-22 17:21 | 48.15278 | 134.82182 | 7932 ft | 268 kts | 354° |
| 2026-04-22 17:21 | 48.18975 | 134.81706 | 7321 ft | 266 kts | 354° |
| 2026-04-22 17:22 | 48.22628 | 134.81916 | 6813 ft | 265 kts | 18° |
| 2026-04-22 17:22 | 48.24308 | 134.83043 | 6417 ft | 264 kts | 26° |
| 2026-04-22 17:22 | 48.27525 | 134.85551 | 5730 ft | 261 kts | 26° |
| 2026-04-22 17:23 | 48.29134 | 134.86812 | 5545 ft | 261 kts | 28° |
| 2026-04-22 17:23 | 48.31907 | 134.90292 | 4920 ft | 261 kts | 43° |
| 2026-04-22 17:23 | 48.33178 | 134.92161 | 4690 ft | 251 kts | 44° |
| 2026-04-22 17:24 | 48.34375 | 134.94006 | 4499 ft | 241 kts | 43° |
| 2026-04-22 17:24 | 48.35581 | 134.95703 | 4240 ft | 234 kts | 40° |
| 2026-04-22 17:24 | 48.36776 | 134.97304 | 3987 ft | 221 kts | 40° |
| 2026-04-22 17:24 | 48.37854 | 134.98769 | 3730 ft | 198 kts | 41° |
| 2026-04-22 17:25 | 48.38842 | 135.00118 | 3448 ft | 189 kts | 40° |
| 2026-04-22 17:25 | 48.39786 | 135.01397 | 3202 ft | 175 kts | 40° |
| 2026-04-22 17:25 | 48.40656 | 135.02578 | 2977 ft | 164 kts | 41° |
| 2026-04-22 17:25 | 48.41492 | 135.03713 | 2774 ft | 160 kts | 41° |
| 2026-04-22 17:26 | 48.42311 | 135.04826 | 2567 ft | 155 kts | 41° |
| 2026-04-22 17:26 | 48.43089 | 135.05882 | 2371 ft | 145 kts | 41° |
| 2026-04-22 17:26 | 48.43804 | 135.06855 | 2195 ft | 132 kts | 41° |
| 2026-04-22 17:26 | 48.44459 | 135.07747 | 2023 ft | 123 kts | 41° |
| 2026-04-22 17:27 | 48.44879 | 135.08317 | 1933 ft | 122 kts | 41° |
| 2026-04-22 17:27 | 48.45724 | 135.09465 | 1728 ft | 122 kts | 41° |
| 2026-04-22 17:27 | 48.46355 | 135.10323 | 1557 ft | 122 kts | 41° |
| 2026-04-22 17:27 | 48.46985 | 135.11180 | 1416 ft | 122 kts | 41° |
| 2026-04-22 17:28 | 48.47606 | 135.12025 | 1241 ft | 122 kts | 41° |
| 2026-04-22 17:28 | 48.48235 | 135.12882 | 1076 ft | 122 kts | 41° |
| 2026-04-22 17:28 | 48.48873 | 135.13751 | 909 ft | 122 kts | 41° |
| 2026-04-22 17:28 | 48.49498 | 135.14601 | 751 ft | 123 kts | 41° |
| 2026-04-22 17:29 | 48.50134 | 135.15455 | 599 ft | 121 kts | 40° |
| 2026-04-22 17:29 | 48.50777 | 135.16299 | 428 ft | 123 kts | 44° |
| 2026-04-22 17:29 | 48.51394 | 135.17183 | 313 ft | 124 kts | 44° |
| 2026-04-22 17:29 | 48.52012 | 135.18025 | 244 ft | 108 kts | 39° |
| 2026-04-22 17:30 | 48.52508 | 135.18689 | 243 ft | 84 kts | 41° |
| 2026-04-22 17:30 | 48.52890 | 135.19230 | 241 ft | 60 kts | 43° |
| 2026-04-22 17:30 | 48.52986 | 135.19307 | 241 ft | 3 kts | 329° |
| 2026-04-22 17:30 | 48.53001 | 135.19191 | 241 ft | 4 kts | 264° |
| 2026-04-22 17:31 | 48.52993 | 135.19124 | 241 ft | 20 kts | 258° |
| 2026-04-22 17:31 | 48.52957 | 135.18897 | 240 ft | 24 kts | 257° |
| 2026-04-22 17:31 | 48.52976 | 135.18684 | 240 ft | 19 kts | 303° |
| 2026-04-22 17:31 | 48.53031 | 135.18592 | 241 ft | 0 kts | 314° |
| 2026-04-22 17:32 | 48.53048 | 135.18553 | 241 ft | 13 kts | 295° |
| 2026-04-22 17:32 | 48.53005 | 135.18401 | 241 ft | 19 kts | 224° |
| 2026-04-22 17:32 | 48.52900 | 135.18257 | 241 ft | 22 kts | 222° |
| 2026-04-22 17:33 | 48.52821 | 135.18148 | 241 ft | 24 kts | 222° |
| 2026-04-22 17:33 | 48.52803 | 135.18025 | 241 ft | 11 kts | 300° |
| 2026-04-22 17:33 | 48.52858 | 135.17924 | 241 ft | 14 kts | 311° |
| 2026-04-22 17:33 | 48.52925 | 135.17801 | 241 ft | 11 kts | 293° |
| 2026-04-22 17:34 | 48.52904 | 135.17710 | 241 ft | 11 kts | 230° |
| 2026-04-22 17:34 | 48.52839 | 135.17613 | 241 ft | 15 kts | 222° |
| 2026-04-22 17:34 | 48.52753 | 135.17532 | 241 ft | 10 kts | 177° |
| 2026-04-22 17:34 | 48.52699 | 135.17561 | 241 ft | 7 kts | 174° |
| 2026-04-22 17:35 | 48.52638 | 135.17532 | 241 ft | 11 kts | 212° |
| 2026-04-22 17:35 | 48.52599 | 135.17474 | 241 ft | 12 kts | 242° |
| 2026-04-22 17:35 | 48.52607 | 135.17412 | 241 ft | 6 kts | 299° |
| 2026-04-22 17:35 | 48.52632 | 135.17366 | 241 ft | 0 kts | 311° |